sensor_id;sensor_type;location;lat;lon;timestamp;P1;durP1;ratioP1;P2;durP2;ratioP2
7169;SDS011;3626;42.656;23.312;2023-02-28T00:00:04;38.30;;;18.00;;
7169;SDS011;3626;42.656;23.312;2023-02-28T00:00:15;38.10;;;17.84;;
7169;SDS011;3626;42.656;23.312;2023-02-28T00:00:24;37.51;;;17.67;;
7169;SDS011;3626;42.656;23.312;2023-02-28T00:00:32;38.58;;;17.96;;
7169;SDS011;3626;42.656;23.312;2023-02-28T00:00:38;39.60;;;18.10;;
7169;SDS011;3626;42.656;23.312;2023-02-28T00:00:44;39.67;;;18.00;;
7169;SDS011;3626;42.656;23.312;2023-02-28T00:00:50;38.15;;;17.52;;
7169;SDS011;3626;42.656;23.312;2023-02-28T00:00:56;36.27;;;17.00;;
7169;SDS011;3626;42.656;23.312;2023-02-28T00:01:03;33.43;;;16.70;;
7169;SDS011;3626;42.656;23.312;2023-02-28T00:01:09;32.20;;;16.40;;
7169;SDS011;3626;42.656;23.312;2023-02-28T00:01:16;33.37;;;16.60;;
7169;SDS011;3626;42.656;23.312;2023-02-28T00:01:22;33.25;;;16.73;;
7169;SDS011;3626;42.656;23.312;2023-02-28T00:01:29;33.00;;;16.50;;
7169;SDS011;3626;42.656;23.312;2023-02-28T00:01:35;33.03;;;16.53;;
7169;SDS011;3626;42.656;23.312;2023-02-28T00:01:44;33.70;;;16.50;;
7169;SDS011;3626;42.656;23.312;2023-02-28T00:01:51;34.77;;;16.80;;
7169;SDS011;3626;42.656;23.312;2023-02-28T00:01:57;35.50;;;17.07;;
7169;SDS011;3626;42.656;23.312;2023-02-28T00:02:06;37.86;;;17.57;;
7169;SDS011;3626;42.656;23.312;2023-02-28T00:02:12;38.73;;;17.80;;
7169;SDS011;3626;42.656;23.312;2023-02-28T00:02:18;37.36;;;17.48;;
7169;SDS011;3626;42.656;23.312;2023-02-28T00:02:25;36.67;;;17.27;;
7169;SDS011;3626;42.656;23.312;2023-02-28T00:02:31;36.73;;;17.63;;
7169;SDS011;3626;42.656;23.312;2023-02-28T00:02:37;36.37;;;17.50;;
7169;SDS011;3626;42.656;23.312;2023-02-28T00:02:44;36.76;;;17.64;;
7169;SDS011;3626;42.656;23.312;2023-02-28T00:02:52;38.40;;;17.97;;
7169;SDS011;3626;42.656;23.312;2023-02-28T00:02:58;38.43;;;18.20;;
7169;SDS011;3626;42.656;23.312;2023-02-28T00:03:05;38.63;;;18.17;;
7169;SDS011;3626;42.656;23.312;2023-02-28T00:03:14;38.81;;;18.17;;
7169;SDS011;3626;42.656;23.312;2023-02-28T00:03:20;40.30;;;18.43;;
7169;SDS011;3626;42.656;23.312;2023-02-28T00:03:27;40.30;;;18.40;;
7169;SDS011;3626;42.656;23.312;2023-02-28T00:03:33;40.47;;;18.23;;
7169;SDS011;3626;42.656;23.312;2023-02-28T00:03:40;42.02;;;18.60;;
7169;SDS011;3626;42.656;23.312;2023-02-28T00:03:46;40.93;;;18.63;;
7169;SDS011;3626;42.656;23.312;2023-02-28T00:03:52;40.12;;;18.38;;
7169;SDS011;3626;42.656;23.312;2023-02-28T00:03:58;40.87;;;18.23;;
7169;SDS011;3626;42.656;23.312;2023-02-28T00:04:05;38.80;;;18.10;;
7169;SDS011;3626;42.656;23.312;2023-02-28T00:04:14;37.79;;;17.84;;
7169;SDS011;3626;42.656;23.312;2023-02-28T00:04:20;36.83;;;17.83;;
7169;SDS011;3626;42.656;23.312;2023-02-28T00:04:27;36.67;;;17.70;;
7169;SDS011;3626;42.656;23.312;2023-02-28T00:04:33;35.77;;;17.60;;
7169;SDS011;3626;42.656;23.312;2023-02-28T00:04:39;35.03;;;17.33;;
7169;SDS011;3626;42.656;23.312;2023-02-28T00:04:47;34.86;;;17.22;;
7169;SDS011;3626;42.656;23.312;2023-02-28T00:04:58;35.20;;;17.29;;
7169;SDS011;3626;42.656;23.312;2023-02-28T00:05:07;35.38;;;17.25;;
7169;SDS011;3626;42.656;23.312;2023-02-28T00:05:16;35.73;;;17.43;;
7169;SDS011;3626;42.656;23.312;2023-02-28T00:05:26;36.28;;;17.56;;
7169;SDS011;3626;42.656;23.312;2023-02-28T00:05:33;37.63;;;17.90;;
7169;SDS011;3626;42.656;23.312;2023-02-28T00:05:39;37.50;;;17.80;;
7169;SDS011;3626;42.656;23.312;2023-02-28T00:05:46;36.73;;;17.70;;
7169;SDS011;3626;42.656;23.312;2023-02-28T00:05:53;37.28;;;17.60;;
7169;SDS011;3626;42.656;23.312;2023-02-28T00:06:02;36.90;;;17.33;;
7169;SDS011;3626;42.656;23.312;2023-02-28T00:06:09;37.45;;;17.38;;
7169;SDS011;3626;42.656;23.312;2023-02-28T00:06:15;38.13;;;17.17;;
7169;SDS011;3626;42.656;23.312;2023-02-28T00:06:22;39.25;;;16.90;;
7169;SDS011;3626;42.656;23.312;2023-02-28T00:06:29;38.52;;;16.82;;
7169;SDS011;3626;42.656;23.312;2023-02-28T00:06:35;38.92;;;16.73;;
7169;SDS011;3626;42.656;23.312;2023-02-28T00:06:44;38.80;;;16.83;;
7169;SDS011;3626;42.656;23.312;2023-02-28T00:06:50;38.01;;;16.67;;
7169;SDS011;3626;42.656;23.312;2023-02-28T00:06:57;39.80;;;17.10;;
7169;SDS011;3626;42.656;23.312;2023-02-28T00:07:03;41.07;;;17.23;;
7169;SDS011;3626;42.656;23.312;2023-02-28T00:07:09;42.55;;;17.38;;
7169;SDS011;3626;42.656;23.312;2023-02-28T00:07:15;42.03;;;17.45;;
7169;SDS011;3626;42.656;23.312;2023-02-28T00:07:24;40.89;;;17.43;;
7169;SDS011;3626;42.656;23.312;2023-02-28T00:07:33;40.61;;;17.29;;
7169;SDS011;3626;42.656;23.312;2023-02-28T00:07:40;39.45;;;16.95;;
7169;SDS011;3626;42.656;23.312;2023-02-28T00:07:47;40.83;;;17.20;;
7169;SDS011;3626;42.656;23.312;2023-02-28T00:07:53;39.90;;;17.13;;
7169;SDS011;3626;42.656;23.312;2023-02-28T00:08:00;37.50;;;16.63;;
7169;SDS011;3626;42.656;23.312;2023-02-28T00:08:06;36.03;;;16.43;;
7169;SDS011;3626;42.656;23.312;2023-02-28T00:08:13;33.47;;;16.37;;
7169;SDS011;3626;42.656;23.312;2023-02-28T00:08:19;33.02;;;16.10;;
7169;SDS011;3626;42.656;23.312;2023-02-28T00:08:25;32.80;;;16.17;;
7169;SDS011;3626;42.656;23.312;2023-02-28T00:08:32;32.60;;;16.10;;
7169;SDS011;3626;42.656;23.312;2023-02-28T00:08:39;32.97;;;16.20;;
7169;SDS011;3626;42.656;23.312;2023-02-28T00:08:45;32.80;;;15.82;;
7169;SDS011;3626;42.656;23.312;2023-02-28T00:08:54;31.70;;;15.50;;
7169;SDS011;3626;42.656;23.312;2023-02-28T00:09:01;32.20;;;15.56;;
7169;SDS011;3626;42.656;23.312;2023-02-28T00:09:07;32.07;;;15.50;;
7169;SDS011;3626;42.656;23.312;2023-02-28T00:09:13;32.55;;;15.68;;
7169;SDS011;3626;42.656;23.312;2023-02-28T00:09:19;33.03;;;16.10;;
7169;SDS011;3626;42.656;23.312;2023-02-28T00:09:25;32.95;;;15.88;;
7169;SDS011;3626;42.656;23.312;2023-02-28T00:09:31;32.70;;;15.70;;
7169;SDS011;3626;42.656;23.312;2023-02-28T00:09:37;33.63;;;15.77;;
7169;SDS011;3626;42.656;23.312;2023-02-28T00:09:43;33.83;;;16.10;;
7169;SDS011;3626;42.656;23.312;2023-02-28T00:09:50;33.58;;;16.22;;
7169;SDS011;3626;42.656;23.312;2023-02-28T00:09:56;33.47;;;16.15;;
7169;SDS011;3626;42.656;23.312;2023-02-28T00:10:02;33.33;;;16.08;;
7169;SDS011;3626;42.656;23.312;2023-02-28T00:10:12;33.33;;;15.90;;
7169;SDS011;3626;42.656;23.312;2023-02-28T00:10:21;33.00;;;15.62;;
7169;SDS011;3626;42.656;23.312;2023-02-28T00:10:31;33.28;;;15.48;;
7169;SDS011;3626;42.656;23.312;2023-02-28T00:10:39;33.63;;;15.45;;
7169;SDS011;3626;42.656;23.312;2023-02-28T00:10:46;34.20;;;15.40;;
7169;SDS011;3626;42.656;23.312;2023-02-28T00:10:52;35.60;;;15.48;;
7169;SDS011;3626;42.656;23.312;2023-02-28T00:11:00;35.80;;;15.50;;
7169;SDS011;3626;42.656;23.312;2023-02-28T00:11:07;34.84;;;15.29;;
7169;SDS011;3626;42.656;23.312;2023-02-28T00:11:15;33.83;;;15.22;;
7169;SDS011;3626;42.656;23.312;2023-02-28T00:11:24;34.30;;;15.30;;
7169;SDS011;3626;42.656;23.312;2023-02-28T00:11:30;33.17;;;15.23;;
7169;SDS011;3626;42.656;23.312;2023-02-28T00:11:36;32.56;;;15.00;;
7169;SDS011;3626;42.656;23.312;2023-02-28T00:11:43;32.50;;;14.97;;
7169;SDS011;3626;42.656;23.312;2023-02-28T00:11:50;31.50;;;14.80;;
7169;SDS011;3626;42.656;23.312;2023-02-28T00:11:56;30.63;;;14.70;;
7169;SDS011;3626;42.656;23.312;2023-02-28T00:12:03;31.48;;;15.16;;
7169;SDS011;3626;42.656;23.312;2023-02-28T00:12:15;33.92;;;15.32;;
7169;SDS011;3626;42.656;23.312;2023-02-28T00:12:21;34.75;;;15.50;;
7169;SDS011;3626;42.656;23.312;2023-02-28T00:12:27;34.68;;;15.44;;
7169;SDS011;3626;42.656;23.312;2023-02-28T00:12:34;34.00;;;15.55;;
7169;SDS011;3626;42.656;23.312;2023-02-28T00:12:41;33.92;;;15.54;;
7169;SDS011;3626;42.656;23.312;2023-02-28T00:12:47;33.47;;;15.50;;
7169;SDS011;3626;42.656;23.312;2023-02-28T00:12:54;33.88;;;15.36;;
7169;SDS011;3626;42.656;23.312;2023-02-28T00:13:04;33.47;;;15.10;;
7169;SDS011;3626;42.656;23.312;2023-02-28T00:13:11;31.82;;;14.95;;
7169;SDS011;3626;42.656;23.312;2023-02-28T00:13:18;31.50;;;15.00;;
7169;SDS011;3626;42.656;23.312;2023-02-28T00:13:27;31.33;;;14.89;;
7169;SDS011;3626;42.656;23.312;2023-02-28T00:13:34;31.10;;;14.80;;
7169;SDS011;3626;42.656;23.312;2023-02-28T00:13:42;30.27;;;14.67;;
7169;SDS011;3626;42.656;23.312;2023-02-28T00:13:51;28.55;;;14.74;;
7169;SDS011;3626;42.656;23.312;2023-02-28T00:13:58;28.52;;;14.85;;
7169;SDS011;3626;42.656;23.312;2023-02-28T00:14:04;28.53;;;14.77;;
7169;SDS011;3626;42.656;23.312;2023-02-28T00:14:10;29.37;;;15.30;;
7169;SDS011;3626;42.656;23.312;2023-02-28T00:14:16;29.05;;;15.13;;
7169;SDS011;3626;42.656;23.312;2023-02-28T00:14:23;28.70;;;15.10;;
7169;SDS011;3626;42.656;23.312;2023-02-28T00:14:29;29.23;;;15.10;;
7169;SDS011;3626;42.656;23.312;2023-02-28T00:14:36;29.23;;;15.13;;
7169;SDS011;3626;42.656;23.312;2023-02-28T00:14:42;30.40;;;15.20;;
7169;SDS011;3626;42.656;23.312;2023-02-28T00:14:49;30.50;;;15.00;;
7169;SDS011;3626;42.656;23.312;2023-02-28T00:14:58;30.16;;;14.93;;
7169;SDS011;3626;42.656;23.312;2023-02-28T00:15:05;29.58;;;14.93;;
7169;SDS011;3626;42.656;23.312;2023-02-28T00:15:12;29.57;;;14.60;;
7169;SDS011;3626;42.656;23.312;2023-02-28T00:15:19;29.38;;;14.57;;
7169;SDS011;3626;42.656;23.312;2023-02-28T00:15:25;29.56;;;14.48;;
7169;SDS011;3626;42.656;23.312;2023-02-28T00:15:31;29.50;;;14.40;;
7169;SDS011;3626;42.656;23.312;2023-02-28T00:15:38;29.58;;;14.43;;
7169;SDS011;3626;42.656;23.312;2023-02-28T00:15:44;29.13;;;14.40;;
7169;SDS011;3626;42.656;23.312;2023-02-28T00:15:58;29.37;;;14.27;;
7169;SDS011;3626;42.656;23.312;2023-02-28T00:16:06;29.01;;;13.90;;
7169;SDS011;3626;42.656;23.312;2023-02-28T00:16:19;28.85;;;13.80;;
7169;SDS011;3626;42.656;23.312;2023-02-28T00:16:26;28.83;;;13.87;;
7169;SDS011;3626;42.656;23.312;2023-02-28T00:16:32;28.48;;;13.85;;
7169;SDS011;3626;42.656;23.312;2023-02-28T00:16:38;27.73;;;13.80;;
7169;SDS011;3626;42.656;23.312;2023-02-28T00:16:44;27.52;;;13.82;;
7169;SDS011;3626;42.656;23.312;2023-02-28T00:16:51;27.92;;;14.27;;
7169;SDS011;3626;42.656;23.312;2023-02-28T00:16:57;28.22;;;14.70;;
7169;SDS011;3626;42.656;23.312;2023-02-28T00:17:03;28.40;;;15.00;;
7169;SDS011;3626;42.656;23.312;2023-02-28T00:17:09;28.93;;;15.00;;
7169;SDS011;3626;42.656;23.312;2023-02-28T00:17:16;28.02;;;15.00;;
7169;SDS011;3626;42.656;23.312;2023-02-28T00:17:25;28.01;;;15.00;;
7169;SDS011;3626;42.656;23.312;2023-02-28T00:17:33;28.42;;;15.27;;
7169;SDS011;3626;42.656;23.312;2023-02-28T00:17:39;29.40;;;15.10;;
7169;SDS011;3626;42.656;23.312;2023-02-28T00:17:45;30.23;;;15.10;;
7169;SDS011;3626;42.656;23.312;2023-02-28T00:17:53;30.30;;;14.77;;
7169;SDS011;3626;42.656;23.312;2023-02-28T00:17:59;32.73;;;14.83;;
7169;SDS011;3626;42.656;23.312;2023-02-28T00:18:07;32.32;;;14.50;;
7169;SDS011;3626;42.656;23.312;2023-02-28T00:18:13;32.03;;;14.40;;
7169;SDS011;3626;42.656;23.312;2023-02-28T00:18:19;31.30;;;14.30;;
7169;SDS011;3626;42.656;23.312;2023-02-28T00:18:25;32.70;;;14.20;;
7169;SDS011;3626;42.656;23.312;2023-02-28T00:18:32;33.12;;;14.32;;
7169;SDS011;3626;42.656;23.312;2023-02-28T00:18:38;34.13;;;14.82;;
7169;SDS011;3626;42.656;23.312;2023-02-28T00:18:45;34.47;;;15.07;;
7169;SDS011;3626;42.656;23.312;2023-02-28T00:18:52;34.16;;;15.00;;
7169;SDS011;3626;42.656;23.312;2023-02-28T00:18:58;32.95;;;14.77;;
7169;SDS011;3626;42.656;23.312;2023-02-28T00:19:07;33.21;;;14.84;;
7169;SDS011;3626;42.656;23.312;2023-02-28T00:19:13;34.15;;;14.85;;
7169;SDS011;3626;42.656;23.312;2023-02-28T00:19:20;33.83;;;14.60;;
7169;SDS011;3626;42.656;23.312;2023-02-28T00:19:26;32.58;;;14.50;;
7169;SDS011;3626;42.656;23.312;2023-02-28T00:19:32;31.98;;;14.30;;
7169;SDS011;3626;42.656;23.312;2023-02-28T00:19:38;31.20;;;14.00;;
7169;SDS011;3626;42.656;23.312;2023-02-28T00:19:44;30.20;;;13.80;;
7169;SDS011;3626;42.656;23.312;2023-02-28T00:19:51;29.80;;;13.77;;
7169;SDS011;3626;42.656;23.312;2023-02-28T00:19:57;30.20;;;13.80;;
7169;SDS011;3626;42.656;23.312;2023-02-28T00:20:10;29.21;;;13.57;;
7169;SDS011;3626;42.656;23.312;2023-02-28T00:20:17;29.17;;;13.67;;
7169;SDS011;3626;42.656;23.312;2023-02-28T00:20:24;28.93;;;13.53;;
7169;SDS011;3626;42.656;23.312;2023-02-28T00:20:33;28.97;;;13.50;;
7169;SDS011;3626;42.656;23.312;2023-02-28T00:20:39;28.53;;;13.47;;
7169;SDS011;3626;42.656;23.312;2023-02-28T00:20:45;27.90;;;13.27;;
7169;SDS011;3626;42.656;23.312;2023-02-28T00:20:51;27.93;;;13.13;;
7169;SDS011;3626;42.656;23.312;2023-02-28T00:20:58;27.77;;;13.17;;
7169;SDS011;3626;42.656;23.312;2023-02-28T00:21:07;26.13;;;13.33;;
7169;SDS011;3626;42.656;23.312;2023-02-28T00:21:13;25.80;;;13.44;;
7169;SDS011;3626;42.656;23.312;2023-02-28T00:21:20;26.50;;;13.37;;
7169;SDS011;3626;42.656;23.312;2023-02-28T00:21:28;27.37;;;13.67;;
7169;SDS011;3626;42.656;23.312;2023-02-28T00:21:34;27.02;;;13.75;;
7169;SDS011;3626;42.656;23.312;2023-02-28T00:21:49;27.85;;;13.95;;
7169;SDS011;3626;42.656;23.312;2023-02-28T00:21:55;27.16;;;13.80;;
7169;SDS011;3626;42.656;23.312;2023-02-28T00:22:01;27.10;;;13.70;;
7169;SDS011;3626;42.656;23.312;2023-02-28T00:22:07;27.20;;;13.57;;
7169;SDS011;3626;42.656;23.312;2023-02-28T00:22:13;27.50;;;13.64;;
7169;SDS011;3626;42.656;23.312;2023-02-28T00:22:20;27.50;;;13.77;;
7169;SDS011;3626;42.656;23.312;2023-02-28T00:22:29;26.33;;;13.47;;
7169;SDS011;3626;42.656;23.312;2023-02-28T00:22:36;26.50;;;12.92;;
7169;SDS011;3626;42.656;23.312;2023-02-28T00:22:43;26.10;;;12.77;;
7169;SDS011;3626;42.656;23.312;2023-02-28T00:22:51;28.80;;;13.50;;
7169;SDS011;3626;42.656;23.312;2023-02-28T00:22:58;29.33;;;13.50;;
7169;SDS011;3626;42.656;23.312;2023-02-28T00:23:04;30.67;;;13.50;;
7169;SDS011;3626;42.656;23.312;2023-02-28T00:23:10;31.73;;;13.83;;
7169;SDS011;3626;42.656;23.312;2023-02-28T00:23:17;31.95;;;13.98;;
7169;SDS011;3626;42.656;23.312;2023-02-28T00:23:23;31.77;;;13.98;;
7169;SDS011;3626;42.656;23.312;2023-02-28T00:23:31;32.00;;;14.40;;
7169;SDS011;3626;42.656;23.312;2023-02-28T00:23:37;31.20;;;14.53;;
7169;SDS011;3626;42.656;23.312;2023-02-28T00:23:46;30.84;;;14.51;;
7169;SDS011;3626;42.656;23.312;2023-02-28T00:23:53;30.08;;;14.40;;
7169;SDS011;3626;42.656;23.312;2023-02-28T00:23:59;29.73;;;14.40;;
7169;SDS011;3626;42.656;23.312;2023-02-28T00:24:05;28.63;;;14.33;;
7169;SDS011;3626;42.656;23.312;2023-02-28T00:24:11;27.58;;;14.06;;
7169;SDS011;3626;42.656;23.312;2023-02-28T00:24:19;26.40;;;13.52;;
7169;SDS011;3626;42.656;23.312;2023-02-28T00:24:25;26.52;;;13.35;;
7169;SDS011;3626;42.656;23.312;2023-02-28T00:24:31;27.13;;;13.10;;
7169;SDS011;3626;42.656;23.312;2023-02-28T00:24:37;30.80;;;13.23;;
7169;SDS011;3626;42.656;23.312;2023-02-28T00:24:44;30.23;;;13.10;;
7169;SDS011;3626;42.656;23.312;2023-02-28T00:24:50;29.33;;;13.00;;
7169;SDS011;3626;42.656;23.312;2023-02-28T00:24:56;29.20;;;13.00;;
7169;SDS011;3626;42.656;23.312;2023-02-28T00:25:02;29.35;;;13.02;;
7169;SDS011;3626;42.656;23.312;2023-02-28T00:25:10;28.98;;;13.12;;
7169;SDS011;3626;42.656;23.312;2023-02-28T00:25:18;29.65;;;13.67;;
7169;SDS011;3626;42.656;23.312;2023-02-28T00:25:29;30.11;;;13.89;;
7169;SDS011;3626;42.656;23.312;2023-02-28T00:25:35;27.74;;;13.72;;
7169;SDS011;3626;42.656;23.312;2023-02-28T00:25:41;25.88;;;13.52;;
7169;SDS011;3626;42.656;23.312;2023-02-28T00:25:47;26.15;;;13.55;;
7169;SDS011;3626;42.656;23.312;2023-02-28T00:25:53;25.93;;;13.60;;
7169;SDS011;3626;42.656;23.312;2023-02-28T00:26:00;26.36;;;13.74;;
7169;SDS011;3626;42.656;23.312;2023-02-28T00:26:06;27.35;;;13.70;;
7169;SDS011;3626;42.656;23.312;2023-02-28T00:26:12;27.43;;;13.47;;
7169;SDS011;3626;42.656;23.312;2023-02-28T00:26:19;27.74;;;13.20;;
7169;SDS011;3626;42.656;23.312;2023-02-28T00:26:25;30.10;;;13.47;;
7169;SDS011;3626;42.656;23.312;2023-02-28T00:26:31;29.90;;;13.65;;
7169;SDS011;3626;42.656;23.312;2023-02-28T00:26:40;29.84;;;13.49;;
7169;SDS011;3626;42.656;23.312;2023-02-28T00:26:46;29.63;;;13.40;;
7169;SDS011;3626;42.656;23.312;2023-02-28T00:26:52;30.73;;;13.50;;
7169;SDS011;3626;42.656;23.312;2023-02-28T00:26:59;30.20;;;13.30;;
7169;SDS011;3626;42.656;23.312;2023-02-28T00:27:05;28.47;;;13.10;;
7169;SDS011;3626;42.656;23.312;2023-02-28T00:27:11;28.30;;;13.07;;
7169;SDS011;3626;42.656;23.312;2023-02-28T00:27:17;28.40;;;13.10;;
7169;SDS011;3626;42.656;23.312;2023-02-28T00:27:23;26.80;;;12.98;;
7169;SDS011;3626;42.656;23.312;2023-02-28T00:27:30;24.77;;;12.50;;
7169;SDS011;3626;42.656;23.312;2023-02-28T00:27:36;24.76;;;12.40;;
7169;SDS011;3626;42.656;23.312;2023-02-28T00:27:43;25.63;;;12.40;;
7169;SDS011;3626;42.656;23.312;2023-02-28T00:27:50;25.20;;;12.23;;
7169;SDS011;3626;42.656;23.312;2023-02-28T00:27:56;25.50;;;12.03;;
7169;SDS011;3626;42.656;23.312;2023-02-28T00:28:02;25.70;;;12.23;;
7169;SDS011;3626;42.656;23.312;2023-02-28T00:28:08;27.10;;;12.50;;
7169;SDS011;3626;42.656;23.312;2023-02-28T00:28:15;27.68;;;12.42;;
7169;SDS011;3626;42.656;23.312;2023-02-28T00:28:24;28.20;;;12.50;;
7169;SDS011;3626;42.656;23.312;2023-02-28T00:28:30;28.02;;;12.50;;
7169;SDS011;3626;42.656;23.312;2023-02-28T00:28:36;28.05;;;12.63;;
7169;SDS011;3626;42.656;23.312;2023-02-28T00:28:42;28.33;;;12.68;;
7169;SDS011;3626;42.656;23.312;2023-02-28T00:28:49;27.68;;;12.72;;
7169;SDS011;3626;42.656;23.312;2023-02-28T00:28:57;27.17;;;12.77;;
7169;SDS011;3626;42.656;23.312;2023-02-28T00:29:04;27.58;;;12.66;;
7169;SDS011;3626;42.656;23.312;2023-02-28T00:29:10;27.15;;;12.30;;
7169;SDS011;3626;42.656;23.312;2023-02-28T00:29:16;26.47;;;12.23;;
7169;SDS011;3626;42.656;23.312;2023-02-28T00:29:22;27.45;;;12.35;;
7169;SDS011;3626;42.656;23.312;2023-02-28T00:29:28;27.83;;;12.55;;
7169;SDS011;3626;42.656;23.312;2023-02-28T00:29:34;27.83;;;12.47;;
7169;SDS011;3626;42.656;23.312;2023-02-28T00:29:40;27.83;;;12.80;;
7169;SDS011;3626;42.656;23.312;2023-02-28T00:29:47;27.70;;;12.83;;
7169;SDS011;3626;42.656;23.312;2023-02-28T00:29:54;27.57;;;12.67;;
7169;SDS011;3626;42.656;23.312;2023-02-28T00:30:03;27.30;;;12.63;;
7169;SDS011;3626;42.656;23.312;2023-02-28T00:30:12;26.75;;;12.83;;
7169;SDS011;3626;42.656;23.312;2023-02-28T00:30:22;24.90;;;12.68;;
7169;SDS011;3626;42.656;23.312;2023-02-28T00:30:29;23.73;;;12.40;;
7169;SDS011;3626;42.656;23.312;2023-02-28T00:30:35;24.27;;;12.47;;
7169;SDS011;3626;42.656;23.312;2023-02-28T00:30:41;23.80;;;12.12;;
7169;SDS011;3626;42.656;23.312;2023-02-28T00:30:48;23.20;;;12.10;;
7169;SDS011;3626;42.656;23.312;2023-02-28T00:30:54;23.40;;;12.27;;
7169;SDS011;3626;42.656;23.312;2023-02-28T00:31:00;23.33;;;12.30;;
7169;SDS011;3626;42.656;23.312;2023-02-28T00:31:06;23.86;;;12.22;;
7169;SDS011;3626;42.656;23.312;2023-02-28T00:31:13;24.77;;;12.20;;
7169;SDS011;3626;42.656;23.312;2023-02-28T00:31:22;25.33;;;12.39;;
7169;SDS011;3626;42.656;23.312;2023-02-28T00:31:28;25.90;;;12.43;;
7169;SDS011;3626;42.656;23.312;2023-02-28T00:31:34;25.73;;;12.40;;
7169;SDS011;3626;42.656;23.312;2023-02-28T00:31:40;25.94;;;12.42;;
7169;SDS011;3626;42.656;23.312;2023-02-28T00:31:46;27.02;;;12.50;;
7169;SDS011;3626;42.656;23.312;2023-02-28T00:31:53;27.25;;;12.43;;
7169;SDS011;3626;42.656;23.312;2023-02-28T00:31:59;27.17;;;12.50;;
7169;SDS011;3626;42.656;23.312;2023-02-28T00:32:08;26.12;;;12.70;;
7169;SDS011;3626;42.656;23.312;2023-02-28T00:32:14;24.60;;;12.90;;
7169;SDS011;3626;42.656;23.312;2023-02-28T00:32:22;25.27;;;13.04;;
7169;SDS011;3626;42.656;23.312;2023-02-28T00:32:29;25.67;;;13.30;;
7169;SDS011;3626;42.656;23.312;2023-02-28T00:32:35;25.20;;;13.25;;
7169;SDS011;3626;42.656;23.312;2023-02-28T00:32:41;25.52;;;13.22;;
7169;SDS011;3626;42.656;23.312;2023-02-28T00:32:48;24.33;;;13.07;;
7169;SDS011;3626;42.656;23.312;2023-02-28T00:32:57;23.85;;;12.96;;
7169;SDS011;3626;42.656;23.312;2023-02-28T00:33:04;23.08;;;12.40;;
7169;SDS011;3626;42.656;23.312;2023-02-28T00:33:10;24.00;;;12.60;;
7169;SDS011;3626;42.656;23.312;2023-02-28T00:33:16;24.33;;;12.52;;
7169;SDS011;3626;42.656;23.312;2023-02-28T00:33:23;23.70;;;12.20;;
7169;SDS011;3626;42.656;23.312;2023-02-28T00:33:29;23.70;;;12.30;;
7169;SDS011;3626;42.656;23.312;2023-02-28T00:33:35;23.54;;;12.24;;
7169;SDS011;3626;42.656;23.312;2023-02-28T00:33:41;23.67;;;12.20;;
7169;SDS011;3626;42.656;23.312;2023-02-28T00:33:47;23.87;;;12.10;;
7169;SDS011;3626;42.656;23.312;2023-02-28T00:33:53;24.02;;;12.25;;
7169;SDS011;3626;42.656;23.312;2023-02-28T00:34:00;24.77;;;12.55;;
7169;SDS011;3626;42.656;23.312;2023-02-28T00:34:07;24.88;;;12.60;;
7169;SDS011;3626;42.656;23.312;2023-02-28T00:34:16;24.74;;;12.32;;
7169;SDS011;3626;42.656;23.312;2023-02-28T00:34:23;25.13;;;12.40;;
7169;SDS011;3626;42.656;23.312;2023-02-28T00:34:29;24.05;;;12.00;;
7169;SDS011;3626;42.656;23.312;2023-02-28T00:34:35;24.26;;;12.00;;
7169;SDS011;3626;42.656;23.312;2023-02-28T00:34:42;24.22;;;12.04;;
7169;SDS011;3626;42.656;23.312;2023-02-28T00:34:48;24.53;;;12.30;;
7169;SDS011;3626;42.656;23.312;2023-02-28T00:34:55;25.80;;;12.23;;
7169;SDS011;3626;42.656;23.312;2023-02-28T00:35:01;25.82;;;12.22;;
7169;SDS011;3626;42.656;23.312;2023-02-28T00:35:09;25.40;;;12.20;;
7169;SDS011;3626;42.656;23.312;2023-02-28T00:35:16;24.38;;;12.20;;
7169;SDS011;3626;42.656;23.312;2023-02-28T00:35:23;24.70;;;12.35;;
7169;SDS011;3626;42.656;23.312;2023-02-28T00:35:29;26.68;;;12.70;;
7169;SDS011;3626;42.656;23.312;2023-02-28T00:35:35;26.07;;;12.57;;
7169;SDS011;3626;42.656;23.312;2023-02-28T00:35:44;26.40;;;12.50;;
7169;SDS011;3626;42.656;23.312;2023-02-28T00:35:51;25.50;;;11.98;;
7169;SDS011;3626;42.656;23.312;2023-02-28T00:36:01;23.95;;;11.75;;
7169;SDS011;3626;42.656;23.312;2023-02-28T00:36:09;23.92;;;11.56;;
7169;SDS011;3626;42.656;23.312;2023-02-28T00:36:17;23.22;;;11.40;;
7169;SDS011;3626;42.656;23.312;2023-02-28T00:36:23;23.32;;;11.32;;
7169;SDS011;3626;42.656;23.312;2023-02-28T00:36:31;21.63;;;10.93;;
7169;SDS011;3626;42.656;23.312;2023-02-28T00:36:37;22.02;;;11.00;;
7169;SDS011;3626;42.656;23.312;2023-02-28T00:36:52;20.92;;;11.02;;
7169;SDS011;3626;42.656;23.312;2023-02-28T00:36:58;21.13;;;11.03;;
7169;SDS011;3626;42.656;23.312;2023-02-28T00:37:04;21.75;;;11.10;;
7169;SDS011;3626;42.656;23.312;2023-02-28T00:37:13;22.66;;;11.27;;
7169;SDS011;3626;42.656;23.312;2023-02-28T00:37:19;22.70;;;11.37;;
7169;SDS011;3626;42.656;23.312;2023-02-28T00:37:29;22.77;;;11.38;;
7169;SDS011;3626;42.656;23.312;2023-02-28T00:37:36;22.53;;;11.40;;
7169;SDS011;3626;42.656;23.312;2023-02-28T00:37:43;22.42;;;11.42;;
7169;SDS011;3626;42.656;23.312;2023-02-28T00:37:49;23.70;;;11.80;;
7169;SDS011;3626;42.656;23.312;2023-02-28T00:37:55;25.10;;;11.93;;
7169;SDS011;3626;42.656;23.312;2023-02-28T00:38:01;25.57;;;12.03;;
7169;SDS011;3626;42.656;23.312;2023-02-28T00:38:08;25.44;;;11.98;;
7169;SDS011;3626;42.656;23.312;2023-02-28T00:38:14;24.75;;;11.60;;
7169;SDS011;3626;42.656;23.312;2023-02-28T00:38:21;25.87;;;11.50;;
7169;SDS011;3626;42.656;23.312;2023-02-28T00:38:27;25.67;;;11.40;;
7169;SDS011;3626;42.656;23.312;2023-02-28T00:38:33;25.58;;;11.60;;
7169;SDS011;3626;42.656;23.312;2023-02-28T00:38:40;26.04;;;11.86;;
7169;SDS011;3626;42.656;23.312;2023-02-28T00:38:47;26.43;;;11.60;;
7169;SDS011;3626;42.656;23.312;2023-02-28T00:38:53;25.17;;;11.50;;
7169;SDS011;3626;42.656;23.312;2023-02-28T00:38:59;23.48;;;11.13;;
7169;SDS011;3626;42.656;23.312;2023-02-28T00:39:05;23.70;;;11.13;;
7169;SDS011;3626;42.656;23.312;2023-02-28T00:39:12;23.52;;;11.20;;
7169;SDS011;3626;42.656;23.312;2023-02-28T00:39:18;22.30;;;11.40;;
7169;SDS011;3626;42.656;23.312;2023-02-28T00:39:24;22.10;;;11.40;;
7169;SDS011;3626;42.656;23.312;2023-02-28T00:39:30;22.35;;;11.20;;
7169;SDS011;3626;42.656;23.312;2023-02-28T00:39:38;22.75;;;10.65;;
7169;SDS011;3626;42.656;23.312;2023-02-28T00:39:45;21.73;;;10.37;;
7169;SDS011;3626;42.656;23.312;2023-02-28T00:39:51;21.00;;;10.40;;
7169;SDS011;3626;42.656;23.312;2023-02-28T00:39:57;21.16;;;10.56;;
7169;SDS011;3626;42.656;23.312;2023-02-28T00:40:04;20.60;;;10.70;;
7169;SDS011;3626;42.656;23.312;2023-02-28T00:40:11;20.34;;;10.66;;
7169;SDS011;3626;42.656;23.312;2023-02-28T00:40:20;21.74;;;10.84;;
7169;SDS011;3626;42.656;23.312;2023-02-28T00:40:27;21.80;;;11.10;;
7169;SDS011;3626;42.656;23.312;2023-02-28T00:40:33;21.40;;;11.18;;
7169;SDS011;3626;42.656;23.312;2023-02-28T00:40:39;21.17;;;11.20;;
7169;SDS011;3626;42.656;23.312;2023-02-28T00:40:45;22.13;;;11.30;;
7169;SDS011;3626;42.656;23.312;2023-02-28T00:40:51;21.88;;;11.24;;
7169;SDS011;3626;42.656;23.312;2023-02-28T00:40:58;22.05;;;11.18;;
7169;SDS011;3626;42.656;23.312;2023-02-28T00:41:09;21.72;;;10.96;;
7169;SDS011;3626;42.656;23.312;2023-02-28T00:41:17;20.97;;;10.77;;
7169;SDS011;3626;42.656;23.312;2023-02-28T00:41:23;20.80;;;10.70;;